createdAt,value
2018-09-03T00:00:13.675Z,23.26
2018-09-03T00:02:43.935Z,23.24
2018-09-03T00:05:14.310Z,23.21
2018-09-03T00:07:44.512Z,23.20
2018-09-03T00:10:14.645Z,23.20
2018-09-03T00:12:44.765Z,23.19
2018-09-03T00:15:15.093Z,23.10
2018-09-03T00:17:45.143Z,23.09
2018-09-03T00:20:15.409Z,23.05
2018-09-03T00:22:45.688Z,23.06
2018-09-03T00:25:17.103Z,23.06
2018-09-03T00:27:47.208Z,22.99
2018-09-03T00:30:18.270Z,23.06
2018-09-03T00:32:53.346Z,23.01
2018-09-03T00:35:30.227Z,23.03
2018-09-03T00:38:08.148Z,22.95
2018-09-03T00:40:43.360Z,22.92
2018-09-03T00:43:18.433Z,22.91
2018-09-03T00:45:53.550Z,22.95
2018-09-03T00:48:23.519Z,22.93
2018-09-03T00:50:53.717Z,22.89
2018-09-03T00:53:24.873Z,22.91
2018-09-03T00:55:56.418Z,22.90
2018-09-03T00:58:26.747Z,22.78
2018-09-03T01:00:56.779Z,22.73
2018-09-03T01:03:26.943Z,22.70
2018-09-03T01:05:56.988Z,22.71
2018-09-03T01:08:27.133Z,22.65
2018-09-03T01:10:57.350Z,22.66
2018-09-03T01:13:29.146Z,22.72
2018-09-03T01:15:59.186Z,22.76
2018-09-03T01:18:29.645Z,22.83
2018-09-03T01:21:00.001Z,22.81
2018-09-03T01:23:30.076Z,22.79
2018-09-03T01:26:00.272Z,22.81
2018-09-03T01:28:30.415Z,22.82
2018-09-03T01:31:00.640Z,22.89
2018-09-03T01:33:30.872Z,22.87
2018-09-03T01:36:01.165Z,22.73
2018-09-03T01:38:31.255Z,22.74
2018-09-03T01:41:01.664Z,22.72
2018-09-03T01:43:31.862Z,22.71
2018-09-03T01:46:01.811Z,22.68
2018-09-03T01:48:31.809Z,22.70
2018-09-03T01:51:02.147Z,22.60
2018-09-03T01:53:32.598Z,22.66
2018-09-03T01:56:04.449Z,22.64
2018-09-03T01:58:34.815Z,22.59
2018-09-03T02:01:04.965Z,22.57
2018-09-03T02:03:35.210Z,22.59
2018-09-03T02:06:06.431Z,22.60
2018-09-03T02:08:36.353Z,22.49
2018-09-03T02:11:06.373Z,22.50
2018-09-03T02:13:36.855Z,22.43
2018-09-03T02:16:06.954Z,22.38
2018-09-03T02:18:37.334Z,22.40
2018-09-03T02:21:07.782Z,22.50
2018-09-03T02:23:38.285Z,22.40
2018-09-03T02:26:08.199Z,22.38
2018-09-03T02:28:38.460Z,22.27
2018-09-03T02:31:08.769Z,22.27
2018-09-03T02:33:38.948Z,22.29
2018-09-03T02:36:08.924Z,22.29
2018-09-03T02:38:39.312Z,22.34
2018-09-03T02:41:09.472Z,22.30
2018-09-03T02:43:39.653Z,22.30
2018-09-03T02:46:10.057Z,22.23
2018-09-03T02:48:40.123Z,22.30
2018-09-03T02:51:12.847Z,22.39
2018-09-03T02:53:43.034Z,22.41
2018-09-03T02:56:13.491Z,22.32
2018-09-03T02:58:43.526Z,22.30
2018-09-03T03:01:13.738Z,22.35
2018-09-03T03:03:44.722Z,22.27
2018-09-03T03:06:14.894Z,22.28
2018-09-03T03:08:46.233Z,22.24
2018-09-03T03:11:17.179Z,22.30
2018-09-03T03:13:47.396Z,22.25
2018-09-03T03:16:17.731Z,22.31
2018-09-03T03:18:47.941Z,22.33
2018-09-03T03:21:20.010Z,22.24
2018-09-03T03:23:50.200Z,22.26
2018-09-03T03:26:20.500Z,22.25
2018-09-03T03:28:50.401Z,22.22
2018-09-03T03:31:20.596Z,22.20
2018-09-03T03:33:50.750Z,22.23
2018-09-03T03:36:20.864Z,22.28
2018-09-03T03:38:51.250Z,22.29
2018-09-03T03:41:21.635Z,22.26
2018-09-03T03:43:51.556Z,22.30
2018-09-03T03:46:22.638Z,22.37
2018-09-03T03:48:53.163Z,22.35
2018-09-03T03:51:23.444Z,22.34
2018-09-03T03:53:53.610Z,22.41
2018-09-03T03:56:23.795Z,22.45
2018-09-03T03:58:54.305Z,22.54
2018-09-03T04:01:24.635Z,22.62
2018-09-03T04:03:54.778Z,22.62
2018-09-03T04:06:25.247Z,22.77
2018-09-03T04:08:55.526Z,22.93
2018-09-03T04:11:27.140Z,23.06
2018-09-03T04:13:57.175Z,23.10
2018-09-03T04:16:27.483Z,22.98
2018-09-03T04:18:57.639Z,22.84
2018-09-03T04:21:28.133Z,23.04
2018-09-03T04:23:58.768Z,23.14
2018-09-03T04:26:28.943Z,23.24
2018-09-03T04:28:59.483Z,23.40
2018-09-03T04:31:30.472Z,23.65
2018-09-03T04:34:00.579Z,23.78
2018-09-03T04:36:35.022Z,23.77
2018-09-03T04:39:05.744Z,23.77
2018-09-03T04:41:36.016Z,24.06
2018-09-03T04:44:06.364Z,24.34
2018-09-03T04:46:37.272Z,24.83
2018-09-03T04:49:07.462Z,25.42
2018-09-03T04:51:38.496Z,25.24
2018-09-03T04:56:46.096Z,25.06
2018-09-03T04:59:16.349Z,24.74
2018-09-03T05:01:46.627Z,24.50
2018-09-03T05:04:16.802Z,24.37
2018-09-03T05:06:48.477Z,24.55
2018-09-03T05:09:18.492Z,24.83
2018-09-03T05:11:51.159Z,24.74
2018-09-03T05:14:21.813Z,24.86
2018-09-03T05:16:54.396Z,24.94
2018-09-03T05:19:24.580Z,25.14
2018-09-03T05:21:56.300Z,25.31
2018-09-03T05:24:27.686Z,25.27
2018-09-03T05:26:57.896Z,25.46
2018-09-03T05:29:28.051Z,25.63
2018-09-03T05:31:58.136Z,25.66
2018-09-03T05:34:29.115Z,26.18
2018-09-03T05:37:02.275Z,27.27
2018-09-03T05:39:34.099Z,28.24
2018-09-03T05:42:04.361Z,28.88
2018-09-03T05:44:34.592Z,29.15
2018-09-03T05:47:04.638Z,29.72
2018-09-03T05:49:35.059Z,30.09
2018-09-03T05:52:05.324Z,30.13
2018-09-03T05:54:35.678Z,30.01
2018-09-03T05:57:06.149Z,30.44
2018-09-03T05:59:36.453Z,31.08
2018-09-03T06:02:06.750Z,31.55
2018-09-03T06:04:37.064Z,31.71
2018-09-03T06:07:07.460Z,31.64
2018-09-03T06:09:37.733Z,30.21
2018-09-03T06:12:07.829Z,30.57
2018-09-03T06:14:38.119Z,30.12
2018-09-03T06:17:08.260Z,30.54
2018-09-03T06:19:38.394Z,30.28
2018-09-03T06:22:08.908Z,29.55
2018-09-03T06:24:39.204Z,29.83
2018-09-03T06:27:10.569Z,30.31
2018-09-03T06:29:40.767Z,30.36
2018-09-03T06:32:11.052Z,29.82
2018-09-03T06:34:41.091Z,29.25
2018-09-03T06:37:11.026Z,29.91
2018-09-03T06:39:42.196Z,29.38
2018-09-03T06:42:12.355Z,29.70
2018-09-03T06:44:42.618Z,29.78
2018-09-03T06:47:12.717Z,30.68
2018-09-03T06:49:43.011Z,30.22
2018-09-03T06:52:13.246Z,29.25
2018-09-03T06:54:44.228Z,28.85
2018-09-03T06:57:15.216Z,29.74
2018-09-03T06:59:46.435Z,30.27
2018-09-03T07:02:16.780Z,29.52
2018-09-03T07:04:46.791Z,28.94
2018-09-03T07:07:16.881Z,29.60
2018-09-03T07:09:47.213Z,29.46
2018-09-03T07:12:19.087Z,29.21
2018-09-03T07:14:49.363Z,29.33
2018-09-03T07:17:20.844Z,28.31
2018-09-03T07:19:51.109Z,28.35
2018-09-03T07:22:22.669Z,28.16
2018-09-03T07:24:53.764Z,27.61
2018-09-03T07:27:25.424Z,27.43
2018-09-03T07:29:55.804Z,27.35
2018-09-03T07:32:26.104Z,26.98
2018-09-03T07:34:56.655Z,27.28
2018-09-03T07:37:27.240Z,27.16
2018-09-03T07:39:57.880Z,27.05
2018-09-03T07:42:28.683Z,26.72
2018-09-03T07:44:58.977Z,26.74
2018-09-03T07:47:29.032Z,27.05
2018-09-03T07:49:59.199Z,27.17
2018-09-03T07:52:29.883Z,27.19
2018-09-03T07:55:00.073Z,27.27
2018-09-03T07:57:30.366Z,27.09
2018-09-03T08:00:00.576Z,26.92
2018-09-03T08:02:30.687Z,26.89
2018-09-03T08:05:01.412Z,26.91
2018-09-03T08:07:31.703Z,27.09
2018-09-03T08:10:02.874Z,26.87
2018-09-03T08:12:33.072Z,26.75
2018-09-03T08:15:03.432Z,26.72
2018-09-03T08:17:33.444Z,26.98
2018-09-03T08:20:03.934Z,26.55
2018-09-03T08:22:34.112Z,26.40
2018-09-03T08:25:04.356Z,26.83
2018-09-03T08:27:34.516Z,26.67
2018-09-03T08:30:06.490Z,26.60
2018-09-03T08:32:37.143Z,26.93
2018-09-03T08:35:07.556Z,26.87
2018-09-03T08:37:38.627Z,26.72
2018-09-03T08:40:08.792Z,27.01
2018-09-03T08:42:39.022Z,26.93
2018-09-03T08:45:09.853Z,27.14
2018-09-03T08:47:40.637Z,27.21
2018-09-03T08:50:12.110Z,27.19
2018-09-03T08:52:43.341Z,27.16
2018-09-03T08:55:14.186Z,26.76
2018-09-03T08:57:44.525Z,26.75
2018-09-03T09:00:14.707Z,26.83
2018-09-03T09:02:44.835Z,27.17
2018-09-03T09:05:15.749Z,27.35
2018-09-03T09:07:46.036Z,27.26
2018-09-03T09:10:16.270Z,27.34
2018-09-03T09:12:46.312Z,26.87
2018-09-03T09:15:16.553Z,26.71
2018-09-03T09:17:46.847Z,26.57
2018-09-03T09:20:17.175Z,26.68
2018-09-03T09:22:47.675Z,26.47
2018-09-03T09:25:17.864Z,26.65
2018-09-03T09:27:48.339Z,26.93
2018-09-03T09:30:18.407Z,27.00
2018-09-03T09:32:48.454Z,27.03
2018-09-03T09:35:18.580Z,27.23
2018-09-03T09:37:48.948Z,27.31
2018-09-03T09:40:19.085Z,27.45
2018-09-03T09:42:49.697Z,27.59
2018-09-03T09:45:19.715Z,27.44
2018-09-03T09:47:50.058Z,27.63
2018-09-03T09:50:20.680Z,27.60
2018-09-03T09:52:51.088Z,27.36
2018-09-03T09:55:21.808Z,27.20
2018-09-03T09:57:52.073Z,26.96
2018-09-03T10:00:27.269Z,27.31
2018-09-03T10:02:57.565Z,27.32
2018-09-03T10:05:27.927Z,26.99
2018-09-03T10:07:58.291Z,26.82
2018-09-03T10:10:28.537Z,26.78
2018-09-03T10:13:02.787Z,26.83
2018-09-03T10:15:33.321Z,26.97
2018-09-03T10:18:04.354Z,27.25
2018-09-03T10:20:34.595Z,27.53
2018-09-03T10:23:05.521Z,27.28
2018-09-03T10:25:35.345Z,27.43
2018-09-03T10:28:05.602Z,27.30
2018-09-03T10:30:35.626Z,27.23
2018-09-03T10:33:05.431Z,27.33
2018-09-03T10:35:35.554Z,27.19
2018-09-03T10:38:05.679Z,27.37
2018-09-03T10:40:35.509Z,27.33
2018-09-03T10:43:05.223Z,27.40
2018-09-03T10:45:35.121Z,27.14
2018-09-03T10:48:06.110Z,27.47
2018-09-03T10:50:36.033Z,27.47
2018-09-03T10:53:06.366Z,27.58
2018-09-03T10:55:36.127Z,27.25
2018-09-03T10:58:06.754Z,27.12
2018-09-03T11:00:37.070Z,27.15
2018-09-03T11:03:08.059Z,27.02
2018-09-03T11:05:37.919Z,26.74
2018-09-03T11:08:07.999Z,26.79
2018-09-03T11:10:37.923Z,26.77
2018-09-03T11:13:08.414Z,26.91
2018-09-03T11:15:38.568Z,27.05
2018-09-03T11:18:08.721Z,26.93
2018-09-03T11:20:38.521Z,26.92
2018-09-03T11:23:08.485Z,26.85
2018-09-03T11:25:38.314Z,26.95
2018-09-03T11:28:08.383Z,27.06
2018-09-03T11:30:38.625Z,27.03
2018-09-03T11:33:08.569Z,26.91
2018-09-03T11:35:38.655Z,27.10
2018-09-03T11:38:08.560Z,27.02
2018-09-03T11:40:38.489Z,26.98
2018-09-03T11:43:08.359Z,26.91
2018-09-03T11:45:38.114Z,27.10
2018-09-03T11:48:07.962Z,26.84
2018-09-03T11:50:38.352Z,26.91
2018-09-03T11:53:08.501Z,26.99
2018-09-03T11:55:38.808Z,26.74
2018-09-03T11:58:08.964Z,26.83
2018-09-03T12:00:39.101Z,26.97
2018-09-03T12:03:08.944Z,27.15
2018-09-03T12:05:39.909Z,27.17
2018-09-03T12:08:09.747Z,27.12
2018-09-03T12:10:39.749Z,27.04
2018-09-03T12:13:09.851Z,27.02
2018-09-03T12:15:48.938Z,26.81
2018-09-03T12:18:18.871Z,26.87
2018-09-03T12:20:48.904Z,27.01
2018-09-03T12:23:19.007Z,26.80
2018-09-03T12:25:51.405Z,26.84
2018-09-03T12:28:21.031Z,26.71
2018-09-03T12:30:50.645Z,26.81
2018-09-03T12:33:20.252Z,26.96
2018-09-03T12:35:50.866Z,27.12
2018-09-03T12:38:21.352Z,27.19
2018-09-03T12:40:51.102Z,27.08
2018-09-03T12:43:20.966Z,27.06
2018-09-03T12:45:55.690Z,26.96
2018-09-03T12:48:25.321Z,26.92
2018-09-03T12:50:55.004Z,26.82
2018-09-03T12:53:24.897Z,26.51
2018-09-03T12:55:55.663Z,26.32
2018-09-03T12:58:25.369Z,26.25
2018-09-03T13:00:55.225Z,26.22
2018-09-03T13:03:24.896Z,26.23
2018-09-03T13:05:55.074Z,26.38
2018-09-03T13:08:25.252Z,26.46
2018-09-03T13:10:55.099Z,26.47
2018-09-03T13:13:24.886Z,26.53
2018-09-03T13:15:57.166Z,26.39
2018-09-03T13:18:27.043Z,26.29
2018-09-03T13:20:57.100Z,26.44
2018-09-03T13:23:27.147Z,26.61
2018-09-03T13:25:56.967Z,26.73
2018-09-03T13:28:26.863Z,26.54
2018-09-03T13:30:56.836Z,26.52
2018-09-03T13:33:26.967Z,26.59
2018-09-03T13:35:58.129Z,26.31
2018-09-03T13:38:28.338Z,26.08
2018-09-03T13:40:59.178Z,26.05
2018-09-03T13:43:29.119Z,26.20
2018-09-03T13:46:00.019Z,26.31
2018-09-03T13:48:29.884Z,26.33
2018-09-03T13:50:59.781Z,26.19
2018-09-03T13:53:33.841Z,26.25
2018-09-03T13:56:03.769Z,26.28
2018-09-03T13:58:33.868Z,26.24
2018-09-03T14:01:04.797Z,26.45
2018-09-03T14:03:35.147Z,26.27
2018-09-03T14:06:05.042Z,26.36
2018-09-03T14:08:35.101Z,26.06
2018-09-03T14:11:05.349Z,26.01
2018-09-03T14:13:35.272Z,26.03
2018-09-03T14:16:05.246Z,26.07
2018-09-03T14:18:35.399Z,26.21
2018-09-03T14:21:05.516Z,26.01
2018-09-03T14:23:37.712Z,25.89
2018-09-03T14:26:08.718Z,26.10
2018-09-03T14:28:38.673Z,26.00
2018-09-03T14:31:08.559Z,25.90
2018-09-03T14:33:38.393Z,25.96
2018-09-03T14:36:08.471Z,25.84
2018-09-03T14:38:38.229Z,25.91
2018-09-03T14:41:08.310Z,25.78
2018-09-03T14:43:38.186Z,25.78
2018-09-03T14:46:08.896Z,25.61
2018-09-03T14:48:38.862Z,25.62
2018-09-03T14:51:09.234Z,25.75
2018-09-03T14:53:40.993Z,25.75
2018-09-03T14:56:11.409Z,25.76
2018-09-03T14:58:41.499Z,25.81
2018-09-03T15:01:11.944Z,25.79
2018-09-03T15:03:42.346Z,25.68
2018-09-03T15:06:12.260Z,25.63
2018-09-03T15:08:42.027Z,25.69
2018-09-03T15:11:12.016Z,25.68
2018-09-03T15:13:41.879Z,25.54
2018-09-03T15:16:11.595Z,25.53
2018-09-03T15:18:41.614Z,25.46
2018-09-03T15:21:15.559Z,25.42
2018-09-03T15:23:47.860Z,25.38
2018-09-03T15:26:20.363Z,25.39
2018-09-03T15:28:54.643Z,25.31
2018-09-03T15:31:30.942Z,25.37
2018-09-03T15:34:04.787Z,25.13
2018-09-03T15:36:36.955Z,25.17
2018-09-03T15:39:13.178Z,25.20
2018-09-03T15:41:46.107Z,25.09
2018-09-03T15:44:19.414Z,25.04
2018-09-03T15:46:50.750Z,24.94
2018-09-03T15:49:20.849Z,24.94
2018-09-03T15:51:51.456Z,24.95
2018-09-03T15:54:23.516Z,24.93
2018-09-03T15:56:53.556Z,24.81
2018-09-03T15:59:24.509Z,24.85
2018-09-03T16:01:55.163Z,24.72
2018-09-03T16:04:25.439Z,24.77
2018-09-03T16:06:55.346Z,24.67
2018-09-03T16:09:26.883Z,24.71
2018-09-03T16:11:57.589Z,24.64
2018-09-03T16:14:28.082Z,24.66
2018-09-03T16:16:58.082Z,24.64
2018-09-03T16:19:28.055Z,24.60
2018-09-03T16:21:58.403Z,24.60
2018-09-03T16:24:30.017Z,24.55
2018-09-03T16:27:00.047Z,24.47
2018-09-03T16:29:29.951Z,24.49
2018-09-03T16:32:01.487Z,24.44
2018-09-03T16:34:31.615Z,24.48
2018-09-03T16:37:01.694Z,24.54
2018-09-03T16:39:32.250Z,24.43
2018-09-03T16:42:06.091Z,24.38
2018-09-03T16:44:36.489Z,24.32
2018-09-03T16:47:06.794Z,24.22
2018-09-03T16:49:37.126Z,24.21
2018-09-03T16:52:07.626Z,24.17
2018-09-03T16:54:37.436Z,24.16
2018-09-03T16:57:07.425Z,24.18
2018-09-03T16:59:38.001Z,24.13
2018-09-03T17:02:08.309Z,24.13
2018-09-03T17:04:38.255Z,24.10
2018-09-03T17:07:09.824Z,24.06
2018-09-03T17:09:40.329Z,23.99
2018-09-03T17:12:11.114Z,23.95
2018-09-03T17:14:41.457Z,23.98
2018-09-03T17:17:12.048Z,23.95
2018-09-03T17:19:44.005Z,23.89
2018-09-03T17:22:16.064Z,23.87
2018-09-03T17:24:48.553Z,23.83
2018-09-03T17:27:20.797Z,23.76
2018-09-03T17:29:51.976Z,23.69
2018-09-03T17:32:21.608Z,23.70
2018-09-03T17:34:52.298Z,23.69
2018-09-03T17:37:22.552Z,23.67
2018-09-03T17:39:53.453Z,23.68
2018-09-03T17:42:23.939Z,23.60
2018-09-03T17:44:54.323Z,23.56
2018-09-03T17:47:26.015Z,23.52
2018-09-03T17:49:58.057Z,23.44
2018-09-03T17:52:28.656Z,23.39
2018-09-03T17:55:00.321Z,23.42
2018-09-03T17:57:31.638Z,23.43
2018-09-03T18:00:02.228Z,23.35
2018-09-03T18:02:33.291Z,23.35
2018-09-03T18:05:06.115Z,23.26
2018-09-03T18:07:36.935Z,23.26
2018-09-03T18:10:07.817Z,23.21
2018-09-03T18:12:39.063Z,23.18
2018-09-03T18:15:11.127Z,23.25
2018-09-03T18:17:41.224Z,23.22
2018-09-03T18:20:11.261Z,23.15
2018-09-03T18:22:41.825Z,23.19
2018-09-03T18:25:12.614Z,23.19
2018-09-03T18:27:43.145Z,23.11
2018-09-03T18:30:17.229Z,23.20
2018-09-03T18:32:49.789Z,23.24
2018-09-03T18:35:20.077Z,23.19
2018-09-03T18:37:50.203Z,23.21
2018-09-03T18:40:20.463Z,23.15
2018-09-03T18:42:51.639Z,23.13
2018-09-03T18:45:22.539Z,23.04
2018-09-03T18:47:52.915Z,23.00
2018-09-03T18:50:23.064Z,22.97
2018-09-03T18:52:53.567Z,22.77
2018-09-03T18:55:23.771Z,22.70
2018-09-03T18:57:54.060Z,22.63
2018-09-03T19:00:25.189Z,22.60
2018-09-03T19:02:55.535Z,22.63
2018-09-03T19:05:25.656Z,22.68
2018-09-03T19:07:57.108Z,22.64
2018-09-03T19:10:27.135Z,22.63
2018-09-03T19:12:57.645Z,22.62
2018-09-03T19:15:29.908Z,22.61
2018-09-03T19:18:00.269Z,22.60
2018-09-03T19:20:30.863Z,22.63
2018-09-03T19:23:01.190Z,22.64
2018-09-03T19:25:32.956Z,22.60
2018-09-03T19:28:03.421Z,22.59
2018-09-03T19:33:09.156Z,22.46
2018-09-03T19:35:39.361Z,22.45
2018-09-03T19:38:09.659Z,22.46
2018-09-03T19:40:39.901Z,22.48
2018-09-03T19:43:10.101Z,22.38
2018-09-03T19:45:40.362Z,22.35
2018-09-03T19:48:10.836Z,22.41
2018-09-03T19:50:41.115Z,22.42
2018-09-03T19:53:11.475Z,22.43
2018-09-03T19:55:42.909Z,22.50
2018-09-03T19:58:13.114Z,22.49
2018-09-03T20:00:43.351Z,22.45
2018-09-03T20:03:14.376Z,22.40
2018-09-03T20:05:44.644Z,22.34
2018-09-03T20:08:15.668Z,22.38
2018-09-03T20:10:45.884Z,22.27
2018-09-03T20:13:16.304Z,22.36
2018-09-03T20:15:46.715Z,22.33
2018-09-03T20:18:16.900Z,22.24
2018-09-03T20:20:47.105Z,22.15
2018-09-03T20:23:19.130Z,22.01
2018-09-03T20:25:49.346Z,21.99
2018-09-03T20:28:20.356Z,21.99
2018-09-03T20:30:50.305Z,21.94
2018-09-03T20:33:20.653Z,21.98
2018-09-03T20:35:50.864Z,21.99
2018-09-03T20:38:21.414Z,21.96
2018-09-03T20:40:51.543Z,21.93
2018-09-03T20:43:21.864Z,21.86
2018-09-03T20:45:51.940Z,22.00
2018-09-03T20:48:22.933Z,21.88
2018-09-03T20:50:53.518Z,21.95
2018-09-03T20:53:23.779Z,21.85
2018-09-03T20:55:54.257Z,21.82
2018-09-03T20:58:24.478Z,21.66
2018-09-03T21:00:55.729Z,21.45
2018-09-03T21:03:26.163Z,21.81
2018-09-03T21:05:56.321Z,21.77
2018-09-03T21:08:27.172Z,21.76
2018-09-03T21:10:57.530Z,21.76
2018-09-03T21:13:28.018Z,21.74
2018-09-03T21:15:58.575Z,21.70
2018-09-03T21:18:28.790Z,21.78
2018-09-03T21:20:58.842Z,21.74
2018-09-03T21:23:29.009Z,21.64
2018-09-03T21:25:59.183Z,21.63
2018-09-03T21:28:29.175Z,21.55
2018-09-03T21:30:59.100Z,21.56
2018-09-03T21:33:30.037Z,21.44
2018-09-03T21:36:00.022Z,21.43
2018-09-03T21:38:30.356Z,21.43
2018-09-03T21:41:00.520Z,21.46
2018-09-03T21:43:30.715Z,21.46
2018-09-03T21:46:00.567Z,21.41
2018-09-03T21:48:30.606Z,21.40
2018-09-03T21:51:00.901Z,21.40
2018-09-03T21:53:31.257Z,21.48
2018-09-03T21:56:01.644Z,21.54
2018-09-03T21:58:33.270Z,21.57
2018-09-03T22:01:03.562Z,21.61
2018-09-03T22:03:49.870Z,21.70
2018-09-03T22:06:20.345Z,21.68
2018-09-03T22:08:51.013Z,21.63
2018-09-03T22:11:22.193Z,21.61
2018-09-03T22:13:52.299Z,21.63
2018-09-03T22:16:22.593Z,21.61
2018-09-03T22:18:52.888Z,21.60
2018-09-03T22:21:23.006Z,21.41
2018-09-03T22:23:54.097Z,21.29
2018-09-03T22:26:24.521Z,21.20
2018-09-03T22:28:55.423Z,21.13
2018-09-03T22:31:27.343Z,21.13
2018-09-03T22:33:58.225Z,21.13
2018-09-03T22:36:29.407Z,21.17
2018-09-03T22:38:59.696Z,21.15
2018-09-03T22:41:29.703Z,21.18
2018-09-03T22:43:59.984Z,21.15
2018-09-03T22:46:31.220Z,21.14
2018-09-03T22:49:01.160Z,21.12
2018-09-03T22:51:31.468Z,21.27
2018-09-03T22:54:01.564Z,21.24
2018-09-03T22:56:31.707Z,21.31
2018-09-03T22:59:02.033Z,21.16
2018-09-03T23:01:34.039Z,21.06
2018-09-03T23:04:03.978Z,21.02
2018-09-03T23:06:34.252Z,21.07
2018-09-03T23:09:05.545Z,20.98
2018-09-03T23:11:36.030Z,21.01
2018-09-03T23:14:07.161Z,20.91
2018-09-03T23:16:37.241Z,20.90
2018-09-03T23:19:07.529Z,21.04
2018-09-03T23:21:37.944Z,21.07
2018-09-03T23:24:08.623Z,21.11
2018-09-03T23:26:39.535Z,21.19
2018-09-03T23:29:10.092Z,21.17
2018-09-03T23:31:41.808Z,21.16
2018-09-03T23:34:11.893Z,21.19
2018-09-03T23:36:42.580Z,21.16
2018-09-03T23:39:13.866Z,21.12
2018-09-03T23:41:43.901Z,20.96
2018-09-03T23:44:14.215Z,20.91
2018-09-03T23:46:44.521Z,20.90
2018-09-03T23:49:14.714Z,20.95
2018-09-03T23:51:44.749Z,20.93
2018-09-03T23:54:15.160Z,20.94
2018-09-03T23:56:46.066Z,20.84
2018-09-03T23:59:16.529Z,20.87
